Time;durP1;ratioP1;P1;durP2;ratioP2;P2;SDS_P1;SDS_P2;PMS_P1;PMS_P2;Temp;Humidity;BMP_temperature;BMP_pressure;BME280_temperature;BME280_humidity;BME280_pressure;Samples;Min_cycle;Max_cycle;Signal;HPM_P1;HPM_P2
2022/08/28 00:00:32;;;;;;;;;;;;;;;;;;5034902;28;20020;-31
2022/08/28 00:02:58;;;;;;;;;;;;;;;;;;5034301;28;20014;-30
2022/08/28 00:05:24;;;;;;;;;;;;;;;;;;5034892;28;19913;-30
2022/08/28 00:07:50;;;;;;;;;;;;;;;;;;5034597;28;19932;-31
2022/08/28 00:10:16;;;;;;;;;;;;;;;;;;5034594;28;19913;-30
2022/08/28 00:12:42;;;;;;;;;;;;;;;;;;5037555;28;19917;-31
2022/08/28 00:15:08;;;;;;;;;;;;;;;;;;5038471;28;19965;-31
2022/08/28 00:17:34;;;;;;;;;;;;;;;;;;5038163;28;20256;-30
2022/08/28 00:20:00;;;;;;;;;;;;;;;;;;5038721;28;20306;-30
2022/08/28 00:22:26;;;;;;;;;;;;;;;;;;5038049;28;19909;-30
2022/08/28 00:24:52;;;;;;;;;;;;;;;;;;5038621;28;19917;-31
2022/08/28 00:30:03;;;;;;;;;;;;;;;;;;5038048;28;19975;-31
2022/08/28 00:32:29;;;;;;;;;;;;;;;;;;5038977;28;19983;-30
2022/08/28 00:34:55;;;;;;;;;;;;;;;;;;5037758;28;19914;-31
2022/08/28 00:37:21;;;;;;;;;;;;;;;;;;5037824;28;19932;-31
2022/08/28 00:39:48;;;;;;;;;;;;;;;;;;5037805;28;20344;-30
2022/08/28 00:42:14;;;;;;;;;;;;;;;;;;5037692;28;19917;-31
2022/08/28 00:44:40;;;;;;;;;;;;;;;;;;5038453;28;19913;-31
2022/08/28 00:47:07;;;;;;;;;;;;;;;;;;5037667;28;19955;-31
2022/08/28 00:49:34;;;;;;;;;;;;;;;;;;5037841;28;20264;-30
2022/08/28 00:52:14;;;;;;;;;;;;;;;;;;5037768;28;19909;-30
2022/08/28 00:54:41;;;;;;;;;;;;;;;;;;5037837;28;19959;-31
2022/08/28 00:57:07;;;;;;;;;;;;;;;;;;5037335;28;19916;-30
2022/08/28 00:59:33;;;;;;;;;;;;;;;;;;5037375;28;20007;-31
2022/08/28 01:01:59;;;;;;;;;;;;;;;;;;5037982;28;19924;-30
2022/08/28 01:04:25;;;;;;;;;;;;;;;;;;5037217;28;19917;-30
2022/08/28 01:06:52;;;;;;;;;;;;;;;;;;5037222;28;20332;-30
2022/08/28 01:09:18;;;;;;;;;;;;;;;;;;5037588;28;19909;-30
2022/08/28 01:11:44;;;;;;;;;;;;;;;;;;5037135;28;19917;-30
2022/08/28 01:14:10;;;;;;;;;;;;;;;;;;5037172;28;19996;-31
2022/08/28 01:16:36;;;;;;;;;;;;;;;;;;5037047;28;19978;-31
2022/08/28 01:19:02;;;;;;;;;;;;;;;;;;5037334;28;20267;-31
2022/08/28 01:21:28;;;;;;;;;;;;;;;;;;5037011;28;20348;-30
2022/08/28 01:23:55;;;;;;;;;;;;;;;;;;5036735;28;20056;-30
2022/08/28 01:26:21;;;;;;;;;;;;;;;;;;5037255;28;20000;-31
2022/08/28 01:28:47;;;;;;;;;;;;;;;;;;5037179;28;20316;-30
2022/08/28 01:31:12;;;;;;;;;;;;;;;;;;5036838;28;19971;-30
2022/08/28 01:33:38;;;;;;;;;;;;;;;;;;5036704;28;20266;-30
2022/08/28 01:36:05;;;;;;;;;;;;;;;;;;5036900;28;19916;-30
2022/08/28 01:38:31;;;;;;;;;;;;;;;;;;5036725;28;19952;-30
2022/08/28 01:40:58;;;;;;;;;;;;;;;;;;5036901;28;19914;-30
2022/08/28 01:43:25;;;;;;;;;;;;;;;;;;5036834;28;19913;-30
2022/08/28 01:45:51;;;;;;;;;;;;;;;;;;5036562;28;19913;-30
2022/08/28 01:48:17;;;;;;;;;;;;;;;;;;5036440;28;19951;-30
2022/08/28 01:50:44;;;;;;;;;;;;;;;;;;5036372;28;19909;-30
2022/08/28 01:53:09;;;;;;;;;;;;;;;;;;5036265;28;19913;-31
2022/08/28 01:55:35;;;;;;;;;;;;;;;;;;5036322;28;19970;-31
2022/08/28 01:58:01;;;;;;;;;;;;;;;;;;5036297;28;19917;-30
2022/08/28 02:00:28;;;;;;;;;;;;;;;;;;5036321;28;20004;-31
2022/08/28 02:02:55;;;;;;;;;;;;;;;;;;5035953;28;19920;-31
2022/08/28 02:05:21;;;;;;;;;;;;;;;;;;5036459;28;19923;-30
2022/08/28 02:07:47;;;;;;;;;;;;;;;;;;5036432;28;20043;-31
2022/08/28 02:10:13;;;;;;;;;;;;;;;;;;5036060;28;20371;-31
2022/08/28 02:12:40;;;;;;;;;;;;;;;;;;5036015;28;19948;-31
2022/08/28 02:15:06;;;;;;;;;;;;;;;;;;5036167;28;19971;-30
2022/08/28 02:17:32;;;;;;;;;;;;;;;;;;5036232;28;20340;-31
2022/08/28 02:19:58;;;;;;;;;;;;;;;;;;5035833;28;20283;-31
2022/08/28 02:22:25;;;;;;;;;;;;;;;;;;5036094;28;19940;-30
2022/08/28 02:24:50;;;;;;;;;;;;;;;;;;5035753;28;20379;-30
2022/08/28 02:27:16;;;;;;;;;;;;;;;;;;5036008;28;19909;-31
2022/08/28 02:29:43;;;;;;;;;;;;;;;;;;5035719;28;19917;-31
2022/08/28 02:32:09;;;;;;;;;;;;;;;;;;5035847;28;20070;-30
2022/08/28 02:34:35;;;;;;;;;;;;;;;;;;5035608;28;19956;-30
2022/08/28 02:37:01;;;;;;;;;;;;;;;;;;5035565;28;20348;-30
2022/08/28 02:39:27;;;;;;;;;;;;;;;;;;5035577;28;19935;-31
2022/08/28 02:41:53;;;;;;;;;;;;;;;;;;5035715;28;19939;-30
2022/08/28 02:44:19;;;;;;;;;;;;;;;;;;5035416;28;19959;-31
2022/08/28 02:46:45;;;;;;;;;;;;;;;;;;5035987;28;19967;-31
2022/08/28 02:49:11;;;;;;;;;;;;;;;;;;5035424;28;20264;-30
2022/08/28 02:51:37;;;;;;;;;;;;;;;;;;5035400;28;20000;-31
2022/08/28 02:54:02;;;;;;;;;;;;;;;;;;5035244;28;19971;-31
2022/08/28 02:56:29;;;;;;;;;;;;;;;;;;5035859;28;19917;-31
2022/08/28 02:58:57;;;;;;;;;;;;;;;;;;5035192;28;19913;-30
2022/08/28 03:01:23;;;;;;;;;;;;;;;;;;5035201;28;20007;-31
2022/08/28 03:03:49;;;;;;;;;;;;;;;;;;5034931;28;19955;-30
2022/08/28 03:06:15;;;;;;;;;;;;;;;;;;5035759;28;19999;-31
2022/08/28 03:08:41;;;;;;;;;;;;;;;;;;5035442;28;19970;-31
2022/08/28 03:11:07;;;;;;;;;;;;;;;;;;5035068;28;20007;-31
2022/08/28 03:13:33;;;;;;;;;;;;;;;;;;5035332;28;19909;-30
2022/08/28 03:15:59;;;;;;;;;;;;;;;;;;5035581;28;19929;-30
2022/08/28 03:18:25;;;;;;;;;;;;;;;;;;5035317;28;19921;-30
2022/08/28 03:20:51;;;;;;;;;;;;;;;;;;5035288;28;19913;-30
2022/08/28 03:23:26;;;;;;;;;;;;;;;;;;5035166;28;20367;-30
2022/08/28 03:25:52;;;;;;;;;;;;;;;;;;5035241;28;19917;-31
2022/08/28 03:28:18;;;;;;;;;;;;;;;;;;5035020;28;20298;-30
2022/08/28 03:30:44;;;;;;;;;;;;;;;;;;5035536;28;20299;-31
2022/08/28 03:33:10;;;;;;;;;;;;;;;;;;5034850;28;19913;-30
2022/08/28 03:35:36;;;;;;;;;;;;;;;;;;5035066;28;19913;-30
2022/08/28 03:38:02;;;;;;;;;;;;;;;;;;5035137;28;19917;-31
2022/08/28 03:40:29;;;;;;;;;;;;;;;;;;5035115;28;19964;-31
2022/08/28 03:42:55;;;;;;;;;;;;;;;;;;5035055;28;20253;-30
2022/08/28 03:45:21;;;;;;;;;;;;;;;;;;5035333;28;20003;-31
2022/08/28 03:47:47;;;;;;;;;;;;;;;;;;5038142;28;19920;-30
2022/08/28 03:50:13;;;;;;;;;;;;;;;;;;5039257;28;19921;-30
2022/08/28 03:52:39;;;;;;;;;;;;;;;;;;5038638;28;20299;-30
2022/08/28 03:55:07;;;;;;;;;;;;;;;;;;5038541;28;19928;-31
2022/08/28 03:57:33;;;;;;;;;;;;;;;;;;5038846;28;19952;-31
2022/08/28 03:59:59;;;;;;;;;;;;;;;;;;5038599;28;19913;-31
2022/08/28 04:02:25;;;;;;;;;;;;;;;;;;5038382;28;19914;-31
2022/08/28 04:04:51;;;;;;;;;;;;;;;;;;5038212;28;19925;-31
2022/08/28 04:07:17;;;;;;;;;;;;;;;;;;5038705;28;19924;-31
2022/08/28 04:09:43;;;;;;;;;;;;;;;;;;5038298;28;20268;-31
2022/08/28 04:12:09;;;;;;;;;;;;;;;;;;5038295;28;19909;-31
2022/08/28 04:14:35;;;;;;;;;;;;;;;;;;5038272;28;19913;-30
2022/08/28 04:17:01;;;;;;;;;;;;;;;;;;5038423;28;20348;-30
2022/08/28 04:19:28;;;;;;;;;;;;;;;;;;5038119;28;20208;-30
2022/08/28 04:21:54;;;;;;;;;;;;;;;;;;5038357;28;19920;-30
2022/08/28 04:24:20;;;;;;;;;;;;;;;;;;5038107;28;19996;-31
2022/08/28 04:26:47;;;;;;;;;;;;;;;;;;5038092;28;20330;-30
2022/08/28 04:29:14;;;;;;;;;;;;;;;;;;5037964;28;19913;-30
2022/08/28 04:31:41;;;;;;;;;;;;;;;;;;5038202;28;20307;-30
2022/08/28 04:34:10;;;;;;;;;;;;;;;;;;5038152;28;20263;-30
2022/08/28 04:36:36;;;;;;;;;;;;;;;;;;5038397;28;20259;-30
2022/08/28 04:39:04;;;;;;;;;;;;;;;;;;5037798;28;19921;-31
2022/08/28 04:41:30;;;;;;;;;;;;;;;;;;5037789;28;19916;-31
2022/08/28 04:43:56;;;;;;;;;;;;;;;;;;5037693;28;19966;-30
2022/08/28 04:46:22;;;;;;;;;;;;;;;;;;5037717;28;19928;-31
2022/08/28 04:48:48;;;;;;;;;;;;;;;;;;5037882;28;19913;-30
2022/08/28 04:51:14;;;;;;;;;;;;;;;;;;5037947;28;19909;-30
2022/08/28 04:53:40;;;;;;;;;;;;;;;;;;5037504;28;19913;-31
2022/08/28 04:56:06;;;;;;;;;;;;;;;;;;5038521;28;19917;-30
2022/08/28 04:58:33;;;;;;;;;;;;;;;;;;5036328;28;19920;-31
2022/08/28 05:00:59;;;;;;;;;;;;;;;;;;5037443;28;19920;-30
2022/08/28 05:03:25;;;;;;;;;;;;;;;;;;5037111;28;19913;-30
2022/08/28 05:05:51;;;;;;;;;;;;;;;;;;5037413;28;20317;-30
2022/08/28 05:08:17;;;;;;;;;;;;;;;;;;5037592;28;19913;-30
2022/08/28 05:10:43;;;;;;;;;;;;;;;;;;5037181;28;20398;-30
2022/08/28 05:13:09;;;;;;;;;;;;;;;;;;5037467;28;19967;-30
2022/08/28 05:15:35;;;;;;;;;;;;;;;;;;5037332;28;19921;-30
2022/08/28 05:18:01;;;;;;;;;;;;;;;;;;5037335;28;19909;-30
2022/08/28 05:20:27;;;;;;;;;;;;;;;;;;5037302;28;19940;-30
2022/08/28 05:22:53;;;;;;;;;;;;;;;;;;5037025;28;20336;-31
2022/08/28 05:25:19;;;;;;;;;;;;;;;;;;5037027;28;19913;-31
2022/08/28 05:27:45;;;;;;;;;;;;;;;;;;5037209;28;19917;-30
2022/08/28 05:30:11;;;;;;;;;;;;;;;;;;5037185;28;19975;-30
2022/08/28 05:32:37;;;;;;;;;;;;;;;;;;5019329;28;19979;-30
2022/08/28 05:35:03;;;;;;;;;;;;;;;;;;5036693;28;20287;-30
2022/08/28 05:37:29;;;;;;;;;;;;;;;;;;5036704;28;19909;-30
2022/08/28 05:39:55;;;;;;;;;;;;;;;;;;5036952;28;19920;-30
2022/08/28 05:42:21;;;;;;;;;;;;;;;;;;5036890;28;19913;-30
2022/08/28 05:44:47;;;;;;;;;;;;;;;;;;5037145;28;20054;-30
2022/08/28 05:47:14;;;;;;;;;;;;;;;;;;5036557;28;19913;-30
2022/08/28 05:49:40;;;;;;;;;;;;;;;;;;5037304;28;19914;-31
2022/08/28 05:52:06;;;;;;;;;;;;;;;;;;5036651;28;19913;-30
2022/08/28 05:54:32;;;;;;;;;;;;;;;;;;5036428;28;20379;-30
2022/08/28 05:56:58;;;;;;;;;;;;;;;;;;5036227;28;19917;-30
2022/08/28 05:59:24;;;;;;;;;;;;;;;;;;5036324;28;20011;-29
2022/08/28 06:01:50;;;;;;;;;;;;;;;;;;5036149;28;19974;-30
2022/08/28 06:04:16;;;;;;;;;;;;;;;;;;5018626;28;19925;-30
2022/08/28 06:06:42;;;;;;;;;;;;;;;;;;5036203;28;20355;-30
2022/08/28 06:09:08;;;;;;;;;;;;;;;;;;5036373;28;19915;-30
2022/08/28 06:11:34;;;;;;;;;;;;;;;;;;5036111;28;19932;-29
2022/08/28 06:14:00;;;;;;;;;;;;;;;;;;5036204;28;19940;-31
2022/08/28 06:16:26;;;;;;;;;;;;;;;;;;5035960;28;20328;-30
2022/08/28 06:18:52;;;;;;;;;;;;;;;;;;5036016;28;20015;-30
2022/08/28 06:21:19;;;;;;;;;;;;;;;;;;5018454;28;19970;-30
2022/08/28 06:23:45;;;;;;;;;;;;;;;;;;5035751;28;19963;-30
2022/08/28 06:26:11;;;;;;;;;;;;;;;;;;5035740;28;19913;-30
2022/08/28 06:28:37;;;;;;;;;;;;;;;;;;5035836;28;19909;-30
2022/08/28 06:31:03;;;;;;;;;;;;;;;;;;5035708;28;19913;-30
2022/08/28 06:33:29;;;;;;;;;;;;;;;;;;5035747;28;19909;-30
2022/08/28 06:35:55;;;;;;;;;;;;;;;;;;5035606;28;19917;-30
2022/08/28 06:38:21;;;;;;;;;;;;;;;;;;5035616;28;19967;-30
2022/08/28 06:40:47;;;;;;;;;;;;;;;;;;5035543;28;19924;-30
2022/08/28 06:43:13;;;;;;;;;;;;;;;;;;5035702;28;20011;-30
2022/08/28 06:45:39;;;;;;;;;;;;;;;;;;5035803;28;19910;-30
2022/08/28 06:48:05;;;;;;;;;;;;;;;;;;5035395;28;19920;-30
2022/08/28 06:50:32;;;;;;;;;;;;;;;;;;5035374;28;20085;-30
2022/08/28 06:52:58;;;;;;;;;;;;;;;;;;5035633;28;19971;-30
2022/08/28 06:55:24;;;;;;;;;;;;;;;;;;5035513;28;19917;-30
2022/08/28 06:57:50;;;;;;;;;;;;;;;;;;5035585;28;19923;-30
2022/08/28 07:00:17;;;;;;;;;;;;;;;;;;5035550;28;19913;-30
2022/08/28 07:02:43;;;;;;;;;;;;;;;;;;5035201;28;19964;-30
2022/08/28 07:05:09;;;;;;;;;;;;;;;;;;5035811;28;19975;-30
2022/08/28 07:07:35;;;;;;;;;;;;;;;;;;5035174;28;19916;-30
2022/08/28 07:10:01;;;;;;;;;;;;;;;;;;5035099;28;19913;-30
2022/08/28 07:12:27;;;;;;;;;;;;;;;;;;5035019;28;19916;-30
2022/08/28 07:14:53;;;;;;;;;;;;;;;;;;5035363;28;19913;-30
2022/08/28 07:17:19;;;;;;;;;;;;;;;;;;5035020;28;19917;-30
2022/08/28 07:19:45;;;;;;;;;;;;;;;;;;5035035;28;19913;-30
2022/08/28 07:22:11;;;;;;;;;;;;;;;;;;5034219;28;20004;-30
2022/08/28 07:24:37;;;;;;;;;;;;;;;;;;5035537;28;19925;-30
2022/08/28 07:27:04;;;;;;;;;;;;;;;;;;5035152;28;19908;-30
2022/08/28 07:29:30;;;;;;;;;;;;;;;;;;5035237;28;19909;-30
2022/08/28 07:31:57;;;;;;;;;;;;;;;;;;5034847;28;19913;-30
2022/08/28 07:34:23;;;;;;;;;;;;;;;;;;5035465;28;19936;-30
2022/08/28 07:36:52;;;;;;;;;;;;;;;;;;5034764;28;20004;-30
2022/08/28 07:39:18;;;;;;;;;;;;;;;;;;5035087;28;19909;-30
2022/08/28 07:41:44;;;;;;;;;;;;;;;;;;5034750;28;20414;-30
2022/08/28 07:46:55;;;;;;;;;;;;;;;;;;5035135;28;20303;-31
2022/08/28 07:49:21;;;;;;;;;;;;;;;;;;5034828;28;20417;-31
2022/08/28 07:51:47;;;;;;;;;;;;;;;;;;5034721;28;19913;-30
2022/08/28 07:54:13;;;;;;;;;;;;;;;;;;5034705;28;19970;-30
2022/08/28 07:56:39;;;;;;;;;;;;;;;;;;5034908;28;19913;-30
2022/08/28 07:59:05;;;;;;;;;;;;;;;;;;5034972;28;20374;-30
2022/08/28 08:01:32;;;;;;;;;;;;;;;;;;5034969;28;19909;-30
2022/08/28 08:03:58;;;;;;;;;;;;;;;;;;5034391;28;19917;-30
2022/08/28 08:06:24;;;;;;;;;;;;;;;;;;5034597;28;19916;-30
2022/08/28 08:08:50;;;;;;;;;;;;;;;;;;5034594;28;19913;-30
2022/08/28 08:11:17;;;;;;;;;;;;;;;;;;5034495;28;19920;-30
2022/08/28 08:13:43;;;;;;;;;;;;;;;;;;5034722;28;19971;-30
2022/08/28 08:16:10;;;;;;;;;;;;;;;;;;5034482;28;19917;-30
2022/08/28 08:18:36;;;;;;;;;;;;;;;;;;5034468;28;20345;-30
2022/08/28 08:21:02;;;;;;;;;;;;;;;;;;5034434;28;19971;-30
2022/08/28 08:23:28;;;;;;;;;;;;;;;;;;5034401;28;19917;-29
2022/08/28 08:25:54;;;;;;;;;;;;;;;;;;5034403;28;19913;-30
2022/08/28 08:28:20;;;;;;;;;;;;;;;;;;5034417;28;19913;-30
2022/08/28 08:30:46;;;;;;;;;;;;;;;;;;5034906;28;19913;-30
2022/08/28 08:33:12;;;;;;;;;;;;;;;;;;5036533;28;19920;-30
2022/08/28 08:35:38;;;;;;;;;;;;;;;;;;5038061;28;20022;-30
2022/08/28 08:38:05;;;;;;;;;;;;;;;;;;5037862;28;20051;-30
2022/08/28 08:40:31;;;;;;;;;;;;;;;;;;5038144;28;19909;-30
2022/08/28 08:42:57;;;;;;;;;;;;;;;;;;5037730;28;19913;-29
2022/08/28 08:45:25;;;;;;;;;;;;;;;;;;5037722;28;19913;-30
2022/08/28 08:47:51;;;;;;;;;;;;;;;;;;5037627;28;19909;-30
2022/08/28 08:50:17;;;;;;;;;;;;;;;;;;5020198;28;19913;-30
2022/08/28 08:52:43;;;;;;;;;;;;;;;;;;5037787;28;19939;-30
2022/08/28 08:55:11;;;;;;;;;;;;;;;;;;5037440;28;20025;-30
2022/08/28 08:57:37;;;;;;;;;;;;;;;;;;5038092;28;19999;-30
2022/08/28 09:00:03;;;;;;;;;;;;;;;;;;5037477;28;20012;-30
2022/08/28 09:02:29;;;;;;;;;;;;;;;;;;5037369;28;20366;-30
2022/08/28 09:04:55;;;;;;;;;;;;;;;;;;5037224;28;19923;-30
2022/08/28 09:07:21;;;;;;;;;;;;;;;;;;5019934;28;19991;-30
2022/08/28 09:09:47;;;;;;;;;;;;;;;;;;5037253;28;19913;-30
2022/08/28 09:12:13;;;;;;;;;;;;;;;;;;5037177;28;19919;-30
2022/08/28 09:14:40;;;;;;;;;;;;;;;;;;5037125;28;19927;-30
2022/08/28 09:17:06;;;;;;;;;;;;;;;;;;5037312;28;19917;-30
2022/08/28 09:19:32;;;;;;;;;;;;;;;;;;5037030;28;20266;-30
2022/08/28 09:21:58;;;;;;;;;;;;;;;;;;5037002;28;19916;-30
2022/08/28 09:24:24;;;;;;;;;;;;;;;;;;5037309;28;19914;-30
2022/08/28 09:26:50;;;;;;;;;;;;;;;;;;5036970;28;20043;-30
2022/08/28 09:29:16;;;;;;;;;;;;;;;;;;5036939;28;20309;-30
2022/08/28 09:31:43;;;;;;;;;;;;;;;;;;5037162;28;19924;-31
2022/08/28 09:34:09;;;;;;;;;;;;;;;;;;5036734;28;19913;-30
2022/08/28 09:36:35;;;;;;;;;;;;;;;;;;5036720;28;19923;-30
2022/08/28 09:39:01;;;;;;;;;;;;;;;;;;5036719;28;19963;-30
2022/08/28 09:44:11;;;;;;;;;;;;;;;;;;5036346;28;20021;-30
2022/08/28 09:46:43;;;;;;;;;;;;;;;;;;5036573;28;19941;-31
2022/08/28 09:49:10;;;;;;;;;;;;;;;;;;5036589;28;19913;-31
2022/08/28 09:51:38;;;;;;;;;;;;;;;;;;5036468;28;19913;-31
2022/08/28 09:54:04;;;;;;;;;;;;;;;;;;5036349;28;19909;-30
2022/08/28 09:56:32;;;;;;;;;;;;;;;;;;5036315;28;19971;-31
2022/08/28 09:58:58;;;;;;;;;;;;;;;;;;5036597;28;19909;-31
2022/08/28 10:01:26;;;;;;;;;;;;;;;;;;5035856;28;20209;-30
2022/08/28 10:03:52;;;;;;;;;;;;;;;;;;5035951;28;19921;-31
2022/08/28 10:06:18;;;;;;;;;;;;;;;;;;5036209;28;19916;-30
2022/08/28 10:08:44;;;;;;;;;;;;;;;;;;5036105;28;20363;-30
2022/08/28 10:11:10;;;;;;;;;;;;;;;;;;5036378;28;19905;-30
2022/08/28 10:13:36;;;;;;;;;;;;;;;;;;5036257;28;19909;-30
2022/08/28 10:16:03;;;;;;;;;;;;;;;;;;5035908;28;20332;-30
2022/08/28 10:18:29;;;;;;;;;;;;;;;;;;5035947;28;19921;-31
2022/08/28 10:20:56;;;;;;;;;;;;;;;;;;5036505;28;19913;-30
2022/08/28 10:23:23;;;;;;;;;;;;;;;;;;5035749;28;20011;-31
2022/08/28 10:25:49;;;;;;;;;;;;;;;;;;5035851;28;20355;-31
2022/08/28 10:28:15;;;;;;;;;;;;;;;;;;5036065;28;19998;-31
2022/08/28 10:30:41;;;;;;;;;;;;;;;;;;5036049;28;20006;-31
2022/08/28 10:33:07;;;;;;;;;;;;;;;;;;5035628;28;19917;-31
2022/08/28 10:35:33;;;;;;;;;;;;;;;;;;5035588;28;20008;-31
2022/08/28 10:37:59;;;;;;;;;;;;;;;;;;5036484;28;19940;-31
2022/08/28 10:40:25;;;;;;;;;;;;;;;;;;5035861;28;19913;-30
2022/08/28 10:42:51;;;;;;;;;;;;;;;;;;5035789;28;19913;-31
2022/08/28 10:45:17;;;;;;;;;;;;;;;;;;5035769;28;19979;-31
2022/08/28 10:47:43;;;;;;;;;;;;;;;;;;5035811;28;19909;-30
2022/08/28 10:50:09;;;;;;;;;;;;;;;;;;5036015;28;19920;-31
2022/08/28 10:52:35;;;;;;;;;;;;;;;;;;5035560;28;19913;-31
2022/08/28 10:55:01;;;;;;;;;;;;;;;;;;5035186;28;20008;-30
2022/08/28 10:57:29;;;;;;;;;;;;;;;;;;5035144;28;19924;-30
2022/08/28 10:59:55;;;;;;;;;;;;;;;;;;5035261;28;19920;-30
2022/08/28 11:02:21;;;;;;;;;;;;;;;;;;5035421;28;19913;-30
2022/08/28 11:04:48;;;;;;;;;;;;;;;;;;5035074;28;19952;-31
2022/08/28 11:07:14;;;;;;;;;;;;;;;;;;5035480;28;20260;-30
2022/08/28 11:09:40;;;;;;;;;;;;;;;;;;5035430;28;19983;-30
2022/08/28 11:12:08;;;;;;;;;;;;;;;;;;5035069;28;20315;-31
2022/08/28 11:14:34;;;;;;;;;;;;;;;;;;5035401;28;19910;-31
2022/08/28 11:17:00;;;;;;;;;;;;;;;;;;5034919;28;20423;-30
2022/08/28 11:19:26;;;;;;;;;;;;;;;;;;5035084;28;19920;-30
2022/08/28 11:21:52;;;;;;;;;;;;;;;;;;5034889;28;20260;-31
2022/08/28 11:24:19;;;;;;;;;;;;;;;;;;5035808;28;19909;-31
2022/08/28 11:26:45;;;;;;;;;;;;;;;;;;5034975;28;19913;-30
2022/08/28 11:29:11;;;;;;;;;;;;;;;;;;5035200;28;19982;-30
2022/08/28 11:31:37;;;;;;;;;;;;;;;;;;5034970;28;19913;-31
2022/08/28 11:34:04;;;;;;;;;;;;;;;;;;5035074;28;20056;-30
2022/08/28 11:36:31;;;;;;;;;;;;;;;;;;5035066;28;19975;-30
2022/08/28 11:38:57;;;;;;;;;;;;;;;;;;5034782;28;20340;-31
2022/08/28 11:41:25;;;;;;;;;;;;;;;;;;5034814;28;19921;-31
2022/08/28 11:43:51;;;;;;;;;;;;;;;;;;5034716;28;19913;-30
2022/08/28 11:46:17;;;;;;;;;;;;;;;;;;5034776;28;19913;-31
2022/08/28 11:48:43;;;;;;;;;;;;;;;;;;5034648;28;20087;-30
2022/08/28 11:51:09;;;;;;;;;;;;;;;;;;5034590;28;20251;-30
2022/08/28 11:53:35;;;;;;;;;;;;;;;;;;5035112;28;19913;-30
2022/08/28 11:56:01;;;;;;;;;;;;;;;;;;5034867;28;19913;-30
2022/08/28 11:58:27;;;;;;;;;;;;;;;;;;5034641;28;19913;-30
2022/08/28 12:00:53;;;;;;;;;;;;;;;;;;5034623;28;19917;-30
2022/08/28 12:03:19;;;;;;;;;;;;;;;;;;5034274;28;19913;-31
2022/08/28 12:05:45;;;;;;;;;;;;;;;;;;5034670;28;19914;-31
2022/08/28 12:08:12;;;;;;;;;;;;;;;;;;5036847;28;19917;-31
2022/08/28 12:10:38;;;;;;;;;;;;;;;;;;5038384;28;19913;-31
2022/08/28 12:13:04;;;;;;;;;;;;;;;;;;5038249;28;20238;-30
2022/08/28 12:15:30;;;;;;;;;;;;;;;;;;5038514;28;20004;-31
2022/08/28 12:17:56;;;;;;;;;;;;;;;;;;5038794;28;19913;-30
2022/08/28 12:20:22;;;;;;;;;;;;;;;;;;5038467;28;19917;-30
2022/08/28 12:22:49;;;;;;;;;;;;;;;;;;5038106;28;19909;-31
2022/08/28 12:25:15;;;;;;;;;;;;;;;;;;5039185;28;19920;-30
2022/08/28 12:27:41;;;;;;;;;;;;;;;;;;5038658;28;19909;-30
2022/08/28 12:30:07;;;;;;;;;;;;;;;;;;5038100;28;19913;-30
2022/08/28 12:32:33;;;;;;;;;;;;;;;;;;5037891;28;19913;-30
2022/08/28 12:34:59;;;;;;;;;;;;;;;;;;5037990;28;20307;-31
2022/08/28 12:37:25;;;;;;;;;;;;;;;;;;5037804;28;19917;-30
2022/08/28 12:39:51;;;;;;;;;;;;;;;;;;5037879;28;19921;-30
2022/08/28 12:42:17;;;;;;;;;;;;;;;;;;5038074;28;19979;-30
2022/08/28 12:44:43;;;;;;;;;;;;;;;;;;5037738;28;19913;-30
2022/08/28 12:47:09;;;;;;;;;;;;;;;;;;5037686;28;19920;-30
2022/08/28 12:49:35;;;;;;;;;;;;;;;;;;5038192;28;19971;-31
2022/08/28 12:52:01;;;;;;;;;;;;;;;;;;5037804;28;19920;-30
2022/08/28 12:54:27;;;;;;;;;;;;;;;;;;5037521;28;20309;-31
2022/08/28 12:56:53;;;;;;;;;;;;;;;;;;5037393;28;19917;-30
2022/08/28 12:59:19;;;;;;;;;;;;;;;;;;5038029;28;19952;-30
2022/08/28 13:01:45;;;;;;;;;;;;;;;;;;5037439;28;19916;-30
2022/08/28 13:04:11;;;;;;;;;;;;;;;;;;5037203;28;20336;-31
2022/08/28 13:06:37;;;;;;;;;;;;;;;;;;5037391;28;20004;-31
2022/08/28 13:09:03;;;;;;;;;;;;;;;;;;5037595;28;20392;-31
2022/08/28 13:11:29;;;;;;;;;;;;;;;;;;5037524;28;19909;-31
2022/08/28 13:13:55;;;;;;;;;;;;;;;;;;5019783;28;19913;-30
2022/08/28 13:16:21;;;;;;;;;;;;;;;;;;5037056;28;19921;-30
2022/08/28 13:18:50;;;;;;;;;;;;;;;;;;5036143;28;19909;-30
2022/08/28 13:21:16;;;;;;;;;;;;;;;;;;5037025;28;19945;-30
2022/08/28 13:23:42;;;;;;;;;;;;;;;;;;5036980;28;19913;-31
2022/08/28 13:26:09;;;;;;;;;;;;;;;;;;5036995;28;19916;-30
2022/08/28 13:28:35;;;;;;;;;;;;;;;;;;5037238;28;20233;-30
2022/08/28 13:31:01;;;;;;;;;;;;;;;;;;5036943;28;19935;-30
2022/08/28 13:33:27;;;;;;;;;;;;;;;;;;5036849;28;19966;-31
2022/08/28 13:35:53;;;;;;;;;;;;;;;;;;5036728;28;19917;-30
2022/08/28 13:38:19;;;;;;;;;;;;;;;;;;5037022;28;19909;-31
2022/08/28 13:40:45;;;;;;;;;;;;;;;;;;5036733;28;19913;-30
2022/08/28 13:43:12;;;;;;;;;;;;;;;;;;5036668;28;19913;-30
2022/08/28 13:45:38;;;;;;;;;;;;;;;;;;5036916;28;19913;-31
2022/08/28 13:48:04;;;;;;;;;;;;;;;;;;5036565;28;19913;-31
2022/08/28 13:50:30;;;;;;;;;;;;;;;;;;5036868;28;19913;-31
2022/08/28 13:52:56;;;;;;;;;;;;;;;;;;5036567;28;19913;-31
2022/08/28 13:55:22;;;;;;;;;;;;;;;;;;5036675;28;19928;-30
2022/08/28 13:57:48;;;;;;;;;;;;;;;;;;5036644;28;20269;-30
2022/08/28 14:00:14;;;;;;;;;;;;;;;;;;5036388;28;19909;-30
2022/08/28 14:05:25;;;;;;;;;;;;;;;;;;4996938;28;19944;-31
2022/08/28 14:07:51;;;;;;;;;;;;;;;;;;4997101;28;19914;-31
2022/08/28 14:10:17;;;;;;;;;;;;;;;;;;4997613;28;19913;-30
2022/08/28 14:12:45;;;;;;;;;;;;;;;;;;4996677;28;19913;-31
2022/08/28 14:15:11;;;;;;;;;;;;;;;;;;4996689;28;19914;-31
2022/08/28 14:17:38;;;;;;;;;;;;;;;;;;4996881;28;19928;-30
2022/08/28 14:20:04;;;;;;;;;;;;;;;;;;4996632;28;19914;-30
2022/08/28 14:22:30;;;;;;;;;;;;;;;;;;4996831;28;19984;-30
2022/08/28 14:24:56;;;;;;;;;;;;;;;;;;4996604;28;19914;-31
2022/08/28 14:27:22;;;;;;;;;;;;;;;;;;4996511;28;19917;-30
2022/08/28 14:29:48;;;;;;;;;;;;;;;;;;4996319;28;19910;-30
2022/08/28 14:32:14;;;;;;;;;;;;;;;;;;4996653;28;19913;-31
2022/08/28 14:34:40;;;;;;;;;;;;;;;;;;4996688;28;20296;-30
2022/08/28 14:37:07;;;;;;;;;;;;;;;;;;4996242;28;20017;-30
2022/08/28 14:39:33;;;;;;;;;;;;;;;;;;4996553;28;19925;-30
2022/08/28 14:41:59;;;;;;;;;;;;;;;;;;4996474;28;19909;-30
2022/08/28 14:44:25;;;;;;;;;;;;;;;;;;4996453;28;19972;-31
2022/08/28 14:46:54;;;;;;;;;;;;;;;;;;4996180;28;20253;-30
2022/08/28 14:49:20;;;;;;;;;;;;;;;;;;4996476;28;20080;-31
2022/08/28 14:51:46;;;;;;;;;;;;;;;;;;4996039;28;19945;-30
2022/08/28 14:54:12;;;;;;;;;;;;;;;;;;4996107;28;19984;-30
2022/08/28 14:56:38;;;;;;;;;;;;;;;;;;4995979;28;19918;-30
2022/08/28 14:59:04;;;;;;;;;;;;;;;;;;4995943;28;20000;-31
2022/08/28 15:01:30;;;;;;;;;;;;;;;;;;4996027;28;19967;-30
2022/08/28 15:03:56;;;;;;;;;;;;;;;;;;5012886;28;19979;-31
2022/08/28 15:06:22;;;;;;;;;;;;;;;;;;5035220;28;19986;-31
2022/08/28 15:08:48;;;;;;;;;;;;;;;;;;5035487;28;19913;-30
2022/08/28 15:11:14;;;;;;;;;;;;;;;;;;5035475;28;19971;-30
2022/08/28 15:13:40;;;;;;;;;;;;;;;;;;5035081;28;19975;-31
2022/08/28 15:16:06;;;;;;;;;;;;;;;;;;5035608;28;20324;-30
2022/08/28 15:18:33;;;;;;;;;;;;;;;;;;5035335;28;20260;-30
2022/08/28 15:20:59;;;;;;;;;;;;;;;;;;5035037;28;19909;-31
2022/08/28 15:23:25;;;;;;;;;;;;;;;;;;5035248;28;19913;-31
2022/08/28 15:25:51;;;;;;;;;;;;;;;;;;5035069;28;19940;-31
2022/08/28 15:28:17;;;;;;;;;;;;;;;;;;5035569;28;19912;-30
2022/08/28 15:30:43;;;;;;;;;;;;;;;;;;5034961;28;20020;-30
2022/08/28 15:33:09;;;;;;;;;;;;;;;;;;5035453;28;19971;-30
2022/08/28 15:35:36;;;;;;;;;;;;;;;;;;5035090;28;20312;-30
2022/08/28 15:38:02;;;;;;;;;;;;;;;;;;5034879;28;19920;-31
2022/08/28 15:43:12;;;;;;;;;;;;;;;;;;5037627;28;20019;-30
2022/08/28 15:45:38;;;;;;;;;;;;;;;;;;5038903;28;19922;-31
2022/08/28 15:48:04;;;;;;;;;;;;;;;;;;5038883;28;19913;-30
2022/08/28 15:50:30;;;;;;;;;;;;;;;;;;5039343;28;20258;-30
2022/08/28 15:52:56;;;;;;;;;;;;;;;;;;5038635;28;19926;-30
2022/08/28 15:55:22;;;;;;;;;;;;;;;;;;5038587;28;19917;-30
2022/08/28 15:57:49;;;;;;;;;;;;;;;;;;5038701;28;20000;-30
2022/08/28 16:00:15;;;;;;;;;;;;;;;;;;5038570;28;20398;-30
2022/08/28 16:02:41;;;;;;;;;;;;;;;;;;5038894;28;19913;-31
2022/08/28 16:05:07;;;;;;;;;;;;;;;;;;5038359;28;20348;-30
2022/08/28 16:07:33;;;;;;;;;;;;;;;;;;5038563;28;19909;-31
2022/08/28 16:09:59;;;;;;;;;;;;;;;;;;5038340;28;19913;-31
2022/08/28 16:12:25;;;;;;;;;;;;;;;;;;5038331;28;19916;-30
2022/08/28 16:14:51;;;;;;;;;;;;;;;;;;5038312;28;19913;-30
2022/08/28 16:17:17;;;;;;;;;;;;;;;;;;5038272;28;19932;-30
2022/08/28 16:19:43;;;;;;;;;;;;;;;;;;5039079;28;19913;-30
2022/08/28 16:22:09;;;;;;;;;;;;;;;;;;5038713;28;19909;-30
2022/08/28 16:24:36;;;;;;;;;;;;;;;;;;5038191;28;19913;-30
2022/08/28 16:27:01;;;;;;;;;;;;;;;;;;5038378;28;20046;-30
2022/08/28 16:29:27;;;;;;;;;;;;;;;;;;5038087;28;19909;-30
2022/08/28 16:31:55;;;;;;;;;;;;;;;;;;5038262;28;19913;-30
2022/08/28 16:34:21;;;;;;;;;;;;;;;;;;5038311;28;19971;-31
2022/08/28 16:36:47;;;;;;;;;;;;;;;;;;5037915;28;19917;-30
2022/08/28 16:39:13;;;;;;;;;;;;;;;;;;5037949;28;19915;-30
2022/08/28 16:41:40;;;;;;;;;;;;;;;;;;5038154;28;20071;-30
2022/08/28 16:44:06;;;;;;;;;;;;;;;;;;5037739;28;19983;-31
2022/08/28 16:46:32;;;;;;;;;;;;;;;;;;5038066;28;19921;-30
2022/08/28 16:48:58;;;;;;;;;;;;;;;;;;5038516;28;19924;-30
2022/08/28 16:51:28;;;;;;;;;;;;;;;;;;5037681;28;20352;-31